sensor_id;sensor_type;location;lat;lon;timestamp;P1;durP1;ratioP1;P2;durP2;ratioP2
12088;SDS011;6107;49.078;8.578;2023-02-28T00:02:16;5.83;;;3.03;;
12088;SDS011;6107;49.078;8.578;2023-02-28T00:04:42;4.53;;;3.50;;
12088;SDS011;6107;49.078;8.578;2023-02-28T00:07:08;4.43;;;3.00;;
12088;SDS011;6107;49.078;8.578;2023-02-28T00:09:34;4.83;;;3.03;;
12088;SDS011;6107;49.078;8.578;2023-02-28T00:11:59;6.07;;;2.80;;
12088;SDS011;6107;49.078;8.578;2023-02-28T00:14:34;4.07;;;2.90;;
12088;SDS011;6107;49.078;8.578;2023-02-28T00:17:00;5.07;;;2.73;;
12088;SDS011;6107;49.078;8.578;2023-02-28T00:19:26;4.67;;;3.17;;
12088;SDS011;6107;49.078;8.578;2023-02-28T00:21:51;4.80;;;3.50;;
12088;SDS011;6107;49.078;8.578;2023-02-28T00:24:17;5.17;;;2.93;;
12088;SDS011;6107;49.078;8.578;2023-02-28T00:26:42;3.60;;;3.17;;
12088;SDS011;6107;49.078;8.578;2023-02-28T00:29:08;4.20;;;2.87;;
12088;SDS011;6107;49.078;8.578;2023-02-28T00:31:33;3.97;;;2.90;;
12088;SDS011;6107;49.078;8.578;2023-02-28T00:33:59;4.70;;;2.93;;
12088;SDS011;6107;49.078;8.578;2023-02-28T00:36:24;5.50;;;2.90;;
12088;SDS011;6107;49.078;8.578;2023-02-28T00:38:49;5.23;;;3.07;;
12088;SDS011;6107;49.078;8.578;2023-02-28T00:41:15;5.43;;;2.67;;
12088;SDS011;6107;49.078;8.578;2023-02-28T00:43:40;6.13;;;3.10;;
12088;SDS011;6107;49.078;8.578;2023-02-28T00:46:06;4.03;;;3.10;;
12088;SDS011;6107;49.078;8.578;2023-02-28T00:48:32;3.80;;;2.77;;
12088;SDS011;6107;49.078;8.578;2023-02-28T00:50:58;4.43;;;2.67;;
12088;SDS011;6107;49.078;8.578;2023-02-28T00:53:23;4.70;;;2.90;;
12088;SDS011;6107;49.078;8.578;2023-02-28T00:55:49;5.00;;;2.87;;
12088;SDS011;6107;49.078;8.578;2023-02-28T00:58:15;6.33;;;3.23;;
12088;SDS011;6107;49.078;8.578;2023-02-28T01:00:41;4.53;;;3.00;;
12088;SDS011;6107;49.078;8.578;2023-02-28T01:03:06;3.93;;;3.13;;
12088;SDS011;6107;49.078;8.578;2023-02-28T01:05:32;5.67;;;3.33;;
12088;SDS011;6107;49.078;8.578;2023-02-28T01:07:57;4.27;;;2.93;;
12088;SDS011;6107;49.078;8.578;2023-02-28T01:10:23;4.57;;;2.97;;
12088;SDS011;6107;49.078;8.578;2023-02-28T01:12:49;4.53;;;3.23;;
12088;SDS011;6107;49.078;8.578;2023-02-28T01:15:15;8.93;;;3.27;;
12088;SDS011;6107;49.078;8.578;2023-02-28T01:17:40;10.67;;;4.60;;
12088;SDS011;6107;49.078;8.578;2023-02-28T01:20:06;7.70;;;3.97;;
12088;SDS011;6107;49.078;8.578;2023-02-28T01:22:32;6.33;;;3.50;;
12088;SDS011;6107;49.078;8.578;2023-02-28T01:24:59;6.40;;;3.63;;
12088;SDS011;6107;49.078;8.578;2023-02-28T01:27:25;5.03;;;3.47;;
12088;SDS011;6107;49.078;8.578;2023-02-28T01:29:51;5.37;;;3.30;;
12088;SDS011;6107;49.078;8.578;2023-02-28T01:32:17;5.23;;;2.93;;
12088;SDS011;6107;49.078;8.578;2023-02-28T01:34:42;4.73;;;3.20;;
12088;SDS011;6107;49.078;8.578;2023-02-28T01:37:08;5.77;;;3.37;;
12088;SDS011;6107;49.078;8.578;2023-02-28T01:39:33;5.40;;;3.53;;
12088;SDS011;6107;49.078;8.578;2023-02-28T01:41:58;5.63;;;3.40;;
12088;SDS011;6107;49.078;8.578;2023-02-28T01:47:21;4.33;;;3.00;;
12088;SDS011;6107;49.078;8.578;2023-02-28T01:49:49;5.53;;;3.20;;
12088;SDS011;6107;49.078;8.578;2023-02-28T01:52:16;4.03;;;3.03;;
12088;SDS011;6107;49.078;8.578;2023-02-28T01:54:44;4.43;;;3.20;;
12088;SDS011;6107;49.078;8.578;2023-02-28T01:57:16;7.20;;;3.60;;
12088;SDS011;6107;49.078;8.578;2023-02-28T01:59:50;4.73;;;3.30;;
12088;SDS011;6107;49.078;8.578;2023-02-28T02:02:23;6.53;;;3.30;;
12088;SDS011;6107;49.078;8.578;2023-02-28T02:05:06;4.60;;;3.20;;
12088;SDS011;6107;49.078;8.578;2023-02-28T02:07:35;4.37;;;3.30;;
12088;SDS011;6107;49.078;8.578;2023-02-28T02:12:52;4.97;;;3.60;;
12088;SDS011;6107;49.078;8.578;2023-02-28T02:16:28;3.53;;;3.20;;
12088;SDS011;6107;49.078;8.578;2023-02-28T02:18:37;5.20;;;3.20;;
12088;SDS011;6107;49.078;8.578;2023-02-28T02:30:08;6.53;;;3.87;;
12088;SDS011;6107;49.078;8.578;2023-02-28T02:35:14;9.53;;;4.47;;
12088;SDS011;6107;49.078;8.578;2023-02-28T02:40:27;9.93;;;5.33;;
12088;SDS011;6107;49.078;8.578;2023-02-28T02:43:03;8.27;;;4.50;;
12088;SDS011;6107;49.078;8.578;2023-02-28T02:45:52;7.60;;;4.23;;
12088;SDS011;6107;49.078;8.578;2023-02-28T02:48:27;11.57;;;5.43;;
12088;SDS011;6107;49.078;8.578;2023-02-28T02:50:58;7.53;;;4.20;;
12088;SDS011;6107;49.078;8.578;2023-02-28T02:53:30;8.13;;;4.33;;
12088;SDS011;6107;49.078;8.578;2023-02-28T02:55:58;8.47;;;4.30;;
12088;SDS011;6107;49.078;8.578;2023-02-28T02:58:27;8.30;;;4.20;;
12088;SDS011;6107;49.078;8.578;2023-02-28T03:00:58;10.43;;;4.73;;
12088;SDS011;6107;49.078;8.578;2023-02-28T03:03:26;8.00;;;4.70;;
12088;SDS011;6107;49.078;8.578;2023-02-28T03:05:55;7.10;;;4.00;;
12088;SDS011;6107;49.078;8.578;2023-02-28T03:08:22;10.63;;;5.13;;
12088;SDS011;6107;49.078;8.578;2023-02-28T03:10:51;7.77;;;3.87;;
12088;SDS011;6107;49.078;8.578;2023-02-28T03:16:07;4.77;;;3.67;;
12088;SDS011;6107;49.078;8.578;2023-02-28T03:18:54;6.10;;;4.13;;
12088;SDS011;6107;49.078;8.578;2023-02-28T03:27:29;6.07;;;3.67;;
12088;SDS011;6107;49.078;8.578;2023-02-28T03:30:00;5.17;;;4.03;;
12088;SDS011;6107;49.078;8.578;2023-02-28T03:35:23;9.63;;;5.17;;
12088;SDS011;6107;49.078;8.578;2023-02-28T03:38:00;11.17;;;6.50;;
12088;SDS011;6107;49.078;8.578;2023-02-28T03:40:32;7.93;;;4.90;;
12088;SDS011;6107;49.078;8.578;2023-02-28T03:43:03;6.93;;;4.47;;
12088;SDS011;6107;49.078;8.578;2023-02-28T03:45:35;8.90;;;4.67;;
12088;SDS011;6107;49.078;8.578;2023-02-28T03:48:07;6.97;;;4.00;;
12088;SDS011;6107;49.078;8.578;2023-02-28T03:50:40;10.37;;;4.50;;
12088;SDS011;6107;49.078;8.578;2023-02-28T03:53:15;8.97;;;4.23;;
12088;SDS011;6107;49.078;8.578;2023-02-28T03:55:49;9.23;;;4.30;;
12088;SDS011;6107;49.078;8.578;2023-02-28T03:58:27;8.53;;;4.53;;
12088;SDS011;6107;49.078;8.578;2023-02-28T04:01:13;7.47;;;3.93;;
12088;SDS011;6107;49.078;8.578;2023-02-28T04:03:58;8.00;;;4.63;;
12088;SDS011;6107;49.078;8.578;2023-02-28T04:06:24;6.67;;;4.13;;
12088;SDS011;6107;49.078;8.578;2023-02-28T04:08:50;6.27;;;3.83;;
12088;SDS011;6107;49.078;8.578;2023-02-28T04:11:23;9.77;;;4.33;;
12088;SDS011;6107;49.078;8.578;2023-02-28T04:13:56;6.67;;;3.93;;
12088;SDS011;6107;49.078;8.578;2023-02-28T04:16:22;7.50;;;4.20;;
12088;SDS011;6107;49.078;8.578;2023-02-28T04:18:48;7.27;;;4.33;;
12088;SDS011;6107;49.078;8.578;2023-02-28T04:21:13;6.47;;;4.10;;
12088;SDS011;6107;49.078;8.578;2023-02-28T04:23:39;6.90;;;4.10;;
12088;SDS011;6107;49.078;8.578;2023-02-28T04:26:05;7.97;;;4.00;;
12088;SDS011;6107;49.078;8.578;2023-02-28T04:28:31;6.87;;;4.07;;
12088;SDS011;6107;49.078;8.578;2023-02-28T04:30:57;6.50;;;4.33;;
12088;SDS011;6107;49.078;8.578;2023-02-28T04:33:24;11.50;;;6.83;;
12088;SDS011;6107;49.078;8.578;2023-02-28T04:36:02;7.77;;;4.60;;
12088;SDS011;6107;49.078;8.578;2023-02-28T04:38:32;6.83;;;4.13;;
12088;SDS011;6107;49.078;8.578;2023-02-28T04:40:59;8.53;;;4.70;;
12088;SDS011;6107;49.078;8.578;2023-02-28T04:43:26;7.50;;;4.20;;
12088;SDS011;6107;49.078;8.578;2023-02-28T04:45:52;8.53;;;4.50;;
12088;SDS011;6107;49.078;8.578;2023-02-28T04:48:21;7.13;;;4.80;;
12088;SDS011;6107;49.078;8.578;2023-02-28T04:50:48;7.77;;;4.43;;
12088;SDS011;6107;49.078;8.578;2023-02-28T04:53:13;8.90;;;5.17;;
12088;SDS011;6107;49.078;8.578;2023-02-28T04:55:39;6.93;;;4.53;;
12088;SDS011;6107;49.078;8.578;2023-02-28T04:58:05;7.47;;;4.80;;
12088;SDS011;6107;49.078;8.578;2023-02-28T05:00:31;7.13;;;4.33;;
12088;SDS011;6107;49.078;8.578;2023-02-28T05:02:56;7.50;;;4.60;;
12088;SDS011;6107;49.078;8.578;2023-02-28T05:05:21;10.03;;;5.00;;
12088;SDS011;6107;49.078;8.578;2023-02-28T05:07:47;14.97;;;7.40;;
12088;SDS011;6107;49.078;8.578;2023-02-28T05:10:12;9.83;;;5.40;;
12088;SDS011;6107;49.078;8.578;2023-02-28T05:12:38;6.70;;;4.50;;
12088;SDS011;6107;49.078;8.578;2023-02-28T05:15:04;6.30;;;4.60;;
12088;SDS011;6107;49.078;8.578;2023-02-28T05:17:30;7.33;;;4.63;;
12088;SDS011;6107;49.078;8.578;2023-02-28T05:19:55;13.13;;;6.10;;
12088;SDS011;6107;49.078;8.578;2023-02-28T05:22:21;11.13;;;5.63;;
12088;SDS011;6107;49.078;8.578;2023-02-28T05:24:47;10.63;;;5.00;;
12088;SDS011;6107;49.078;8.578;2023-02-28T05:27:12;11.27;;;5.40;;
12088;SDS011;6107;49.078;8.578;2023-02-28T05:29:38;7.83;;;4.37;;
12088;SDS011;6107;49.078;8.578;2023-02-28T05:32:10;9.13;;;5.00;;
12088;SDS011;6107;49.078;8.578;2023-02-28T05:34:37;10.57;;;5.00;;
12088;SDS011;6107;49.078;8.578;2023-02-28T05:37:03;11.50;;;5.63;;
12088;SDS011;6107;49.078;8.578;2023-02-28T05:39:30;8.90;;;5.00;;
12088;SDS011;6107;49.078;8.578;2023-02-28T05:41:55;7.50;;;4.23;;
12088;SDS011;6107;49.078;8.578;2023-02-28T05:44:21;11.73;;;4.87;;
12088;SDS011;6107;49.078;8.578;2023-02-28T05:46:46;6.60;;;4.20;;
12088;SDS011;6107;49.078;8.578;2023-02-28T05:49:12;7.53;;;4.77;;
12088;SDS011;6107;49.078;8.578;2023-02-28T05:51:37;7.87;;;4.83;;
12088;SDS011;6107;49.078;8.578;2023-02-28T05:54:04;8.87;;;5.20;;
12088;SDS011;6107;49.078;8.578;2023-02-28T05:56:30;7.90;;;5.00;;
12088;SDS011;6107;49.078;8.578;2023-02-28T05:58:56;6.63;;;4.57;;
12088;SDS011;6107;49.078;8.578;2023-02-28T06:01:23;7.80;;;5.13;;
12088;SDS011;6107;49.078;8.578;2023-02-28T06:04:13;8.80;;;4.53;;
12088;SDS011;6107;49.078;8.578;2023-02-28T06:06:42;8.30;;;4.77;;
12088;SDS011;6107;49.078;8.578;2023-02-28T06:09:08;8.07;;;5.53;;
12088;SDS011;6107;49.078;8.578;2023-02-28T06:11:34;10.90;;;5.23;;
12088;SDS011;6107;49.078;8.578;2023-02-28T06:13:59;7.70;;;4.93;;
12088;SDS011;6107;49.078;8.578;2023-02-28T06:16:26;7.97;;;4.37;;
12088;SDS011;6107;49.078;8.578;2023-02-28T06:18:53;9.57;;;6.03;;
12088;SDS011;6107;49.078;8.578;2023-02-28T06:21:21;7.67;;;4.60;;
12088;SDS011;6107;49.078;8.578;2023-02-28T06:23:46;10.63;;;5.10;;
12088;SDS011;6107;49.078;8.578;2023-02-28T06:26:12;10.67;;;5.43;;
12088;SDS011;6107;49.078;8.578;2023-02-28T06:28:38;9.70;;;5.43;;
12088;SDS011;6107;49.078;8.578;2023-02-28T06:31:08;9.77;;;5.43;;
12088;SDS011;6107;49.078;8.578;2023-02-28T06:33:35;8.33;;;5.20;;
12088;SDS011;6107;49.078;8.578;2023-02-28T06:36:02;7.97;;;4.77;;
12088;SDS011;6107;49.078;8.578;2023-02-28T06:38:28;10.33;;;4.90;;
12088;SDS011;6107;49.078;8.578;2023-02-28T06:40:54;9.70;;;5.07;;
12088;SDS011;6107;49.078;8.578;2023-02-28T06:43:20;9.23;;;4.80;;
12088;SDS011;6107;49.078;8.578;2023-02-28T06:45:46;9.97;;;4.93;;
12088;SDS011;6107;49.078;8.578;2023-02-28T06:48:12;9.43;;;5.07;;
12088;SDS011;6107;49.078;8.578;2023-02-28T06:50:37;9.63;;;5.13;;
12088;SDS011;6107;49.078;8.578;2023-02-28T06:53:03;7.43;;;4.90;;
12088;SDS011;6107;49.078;8.578;2023-02-28T06:55:28;8.50;;;5.40;;
12088;SDS011;6107;49.078;8.578;2023-02-28T06:57:54;6.67;;;4.53;;
12088;SDS011;6107;49.078;8.578;2023-02-28T07:00:20;7.47;;;4.87;;
12088;SDS011;6107;49.078;8.578;2023-02-28T07:02:46;11.53;;;5.17;;
12088;SDS011;6107;49.078;8.578;2023-02-28T07:05:12;8.70;;;5.57;;
12088;SDS011;6107;49.078;8.578;2023-02-28T07:07:38;21.23;;;9.90;;
12088;SDS011;6107;49.078;8.578;2023-02-28T07:10:08;13.53;;;7.00;;
12088;SDS011;6107;49.078;8.578;2023-02-28T07:12:36;22.73;;;9.67;;
12088;SDS011;6107;49.078;8.578;2023-02-28T07:15:02;19.30;;;7.57;;
12088;SDS011;6107;49.078;8.578;2023-02-28T07:17:32;11.70;;;5.07;;
12088;SDS011;6107;49.078;8.578;2023-02-28T07:19:57;12.80;;;7.00;;
12088;SDS011;6107;49.078;8.578;2023-02-28T07:22:23;10.47;;;6.20;;
12088;SDS011;6107;49.078;8.578;2023-02-28T07:24:49;14.33;;;6.13;;
12088;SDS011;6107;49.078;8.578;2023-02-28T07:27:15;8.07;;;4.90;;
12088;SDS011;6107;49.078;8.578;2023-02-28T07:29:48;9.17;;;5.13;;
12088;SDS011;6107;49.078;8.578;2023-02-28T07:32:14;8.47;;;5.87;;
12088;SDS011;6107;49.078;8.578;2023-02-28T07:34:40;8.13;;;5.30;;
12088;SDS011;6107;49.078;8.578;2023-02-28T07:37:05;10.97;;;5.03;;
12088;SDS011;6107;49.078;8.578;2023-02-28T07:39:31;8.27;;;4.97;;
12088;SDS011;6107;49.078;8.578;2023-02-28T07:41:56;9.60;;;5.50;;
12088;SDS011;6107;49.078;8.578;2023-02-28T07:44:22;11.80;;;5.70;;
12088;SDS011;6107;49.078;8.578;2023-02-28T07:46:47;10.43;;;4.90;;
12088;SDS011;6107;49.078;8.578;2023-02-28T07:49:13;10.53;;;5.40;;
12088;SDS011;6107;49.078;8.578;2023-02-28T07:51:38;7.43;;;5.30;;
12088;SDS011;6107;49.078;8.578;2023-02-28T07:54:04;9.23;;;5.20;;
12088;SDS011;6107;49.078;8.578;2023-02-28T07:56:30;9.00;;;5.47;;
12088;SDS011;6107;49.078;8.578;2023-02-28T07:58:55;14.23;;;5.33;;
12088;SDS011;6107;49.078;8.578;2023-02-28T08:01:21;8.53;;;5.67;;
12088;SDS011;6107;49.078;8.578;2023-02-28T08:03:47;8.70;;;5.43;;
12088;SDS011;6107;49.078;8.578;2023-02-28T08:06:19;9.53;;;5.57;;
12088;SDS011;6107;49.078;8.578;2023-02-28T08:08:46;9.30;;;5.87;;
12088;SDS011;6107;49.078;8.578;2023-02-28T08:11:12;10.60;;;6.23;;
12088;SDS011;6107;49.078;8.578;2023-02-28T08:13:38;11.23;;;6.60;;
12088;SDS011;6107;49.078;8.578;2023-02-28T08:16:04;9.30;;;6.17;;
12088;SDS011;6107;49.078;8.578;2023-02-28T08:18:29;10.30;;;6.03;;
12088;SDS011;6107;49.078;8.578;2023-02-28T08:20:55;9.23;;;4.83;;
12088;SDS011;6107;49.078;8.578;2023-02-28T08:23:21;10.73;;;5.67;;
12088;SDS011;6107;49.078;8.578;2023-02-28T08:25:53;10.07;;;5.23;;
12088;SDS011;6107;49.078;8.578;2023-02-28T08:28:19;8.73;;;5.83;;
12088;SDS011;6107;49.078;8.578;2023-02-28T08:30:45;10.93;;;6.50;;
12088;SDS011;6107;49.078;8.578;2023-02-28T08:33:11;9.23;;;5.33;;
12088;SDS011;6107;49.078;8.578;2023-02-28T08:35:36;9.90;;;5.43;;
12088;SDS011;6107;49.078;8.578;2023-02-28T08:38:02;13.13;;;6.67;;
12088;SDS011;6107;49.078;8.578;2023-02-28T08:40:27;10.63;;;6.30;;
12088;SDS011;6107;49.078;8.578;2023-02-28T08:42:53;10.77;;;5.53;;
12088;SDS011;6107;49.078;8.578;2023-02-28T08:45:18;13.40;;;6.60;;
12088;SDS011;6107;49.078;8.578;2023-02-28T08:47:44;11.07;;;6.13;;
12088;SDS011;6107;49.078;8.578;2023-02-28T08:50:09;9.40;;;6.10;;
12088;SDS011;6107;49.078;8.578;2023-02-28T08:52:35;9.07;;;6.00;;
12088;SDS011;6107;49.078;8.578;2023-02-28T08:55:01;12.63;;;6.20;;
12088;SDS011;6107;49.078;8.578;2023-02-28T08:57:26;11.90;;;6.77;;
12088;SDS011;6107;49.078;8.578;2023-02-28T08:59:52;9.07;;;6.20;;
12088;SDS011;6107;49.078;8.578;2023-02-28T09:02:17;9.97;;;5.97;;
12088;SDS011;6107;49.078;8.578;2023-02-28T09:04:43;12.07;;;6.00;;
12088;SDS011;6107;49.078;8.578;2023-02-28T09:07:12;10.57;;;5.93;;
12088;SDS011;6107;49.078;8.578;2023-02-28T09:09:37;13.57;;;6.23;;
12088;SDS011;6107;49.078;8.578;2023-02-28T09:12:18;9.30;;;6.20;;
12088;SDS011;6107;49.078;8.578;2023-02-28T09:14:44;10.47;;;5.87;;
12088;SDS011;6107;49.078;8.578;2023-02-28T09:17:10;11.17;;;6.13;;
12088;SDS011;6107;49.078;8.578;2023-02-28T09:19:35;11.83;;;6.80;;
12088;SDS011;6107;49.078;8.578;2023-02-28T09:22:01;8.00;;;5.80;;
12088;SDS011;6107;49.078;8.578;2023-02-28T09:24:27;12.67;;;6.83;;
12088;SDS011;6107;49.078;8.578;2023-02-28T09:26:52;9.00;;;6.17;;
12088;SDS011;6107;49.078;8.578;2023-02-28T09:29:18;11.00;;;5.93;;
12088;SDS011;6107;49.078;8.578;2023-02-28T09:31:43;10.17;;;6.60;;
12088;SDS011;6107;49.078;8.578;2023-02-28T09:34:09;10.97;;;6.10;;
12088;SDS011;6107;49.078;8.578;2023-02-28T09:36:35;9.33;;;6.37;;
12088;SDS011;6107;49.078;8.578;2023-02-28T09:39:04;11.13;;;6.23;;
12088;SDS011;6107;49.078;8.578;2023-02-28T09:41:32;8.37;;;5.87;;
12088;SDS011;6107;49.078;8.578;2023-02-28T09:44:13;10.27;;;6.50;;
12088;SDS011;6107;49.078;8.578;2023-02-28T09:46:44;8.97;;;6.17;;
12088;SDS011;6107;49.078;8.578;2023-02-28T09:49:16;9.73;;;6.40;;
12088;SDS011;6107;49.078;8.578;2023-02-28T09:52:04;8.80;;;6.00;;
12088;SDS011;6107;49.078;8.578;2023-02-28T09:54:34;10.13;;;6.10;;
12088;SDS011;6107;49.078;8.578;2023-02-28T09:57:01;9.60;;;6.47;;
12088;SDS011;6107;49.078;8.578;2023-02-28T10:02:17;10.03;;;5.70;;
12088;SDS011;6107;49.078;8.578;2023-02-28T10:05:07;7.83;;;5.90;;
12088;SDS011;6107;49.078;8.578;2023-02-28T10:10:35;9.43;;;6.20;;
12088;SDS011;6107;49.078;8.578;2023-02-28T10:13:15;10.43;;;6.50;;
12088;SDS011;6107;49.078;8.578;2023-02-28T10:15:45;10.60;;;7.03;;
12088;SDS011;6107;49.078;8.578;2023-02-28T10:18:16;9.80;;;6.63;;
12088;SDS011;6107;49.078;8.578;2023-02-28T10:20:47;9.73;;;6.60;;
12088;SDS011;6107;49.078;8.578;2023-02-28T10:23:22;10.30;;;6.50;;
12088;SDS011;6107;49.078;8.578;2023-02-28T10:26:08;10.73;;;7.50;;
12088;SDS011;6107;49.078;8.578;2023-02-28T10:28:36;14.77;;;7.90;;
12088;SDS011;6107;49.078;8.578;2023-02-28T10:31:02;11.87;;;7.10;;
12088;SDS011;6107;49.078;8.578;2023-02-28T10:33:29;10.73;;;6.83;;
12088;SDS011;6107;49.078;8.578;2023-02-28T10:35:57;9.97;;;6.70;;
12088;SDS011;6107;49.078;8.578;2023-02-28T10:38:24;12.70;;;6.97;;
12088;SDS011;6107;49.078;8.578;2023-02-28T10:40:52;11.67;;;6.87;;
12088;SDS011;6107;49.078;8.578;2023-02-28T10:43:39;10.50;;;7.40;;
12088;SDS011;6107;49.078;8.578;2023-02-28T10:48:38;12.63;;;7.83;;
12088;SDS011;6107;49.078;8.578;2023-02-28T10:51:07;10.73;;;7.23;;
12088;SDS011;6107;49.078;8.578;2023-02-28T10:53:38;11.73;;;7.00;;
12088;SDS011;6107;49.078;8.578;2023-02-28T11:01:13;13.53;;;7.27;;
12088;SDS011;6107;49.078;8.578;2023-02-28T11:03:40;10.03;;;6.93;;
12088;SDS011;6107;49.078;8.578;2023-02-28T11:06:07;11.63;;;7.07;;
12088;SDS011;6107;49.078;8.578;2023-02-28T11:08:49;11.33;;;7.47;;
12088;SDS011;6107;49.078;8.578;2023-02-28T11:11:20;10.70;;;7.30;;
12088;SDS011;6107;49.078;8.578;2023-02-28T11:13:50;12.80;;;7.53;;
12088;SDS011;6107;49.078;8.578;2023-02-28T11:16:18;10.83;;;6.97;;
12088;SDS011;6107;49.078;8.578;2023-02-28T11:21:19;13.73;;;7.80;;
12088;SDS011;6107;49.078;8.578;2023-02-28T11:24:04;11.50;;;7.33;;
12088;SDS011;6107;49.078;8.578;2023-02-28T11:26:44;16.00;;;8.53;;
12088;SDS011;6107;49.078;8.578;2023-02-28T11:29:14;14.43;;;7.67;;
12088;SDS011;6107;49.078;8.578;2023-02-28T11:31:41;12.53;;;6.50;;
12088;SDS011;6107;49.078;8.578;2023-02-28T11:34:22;12.93;;;7.60;;
12088;SDS011;6107;49.078;8.578;2023-02-28T11:36:50;11.43;;;7.50;;
12088;SDS011;6107;49.078;8.578;2023-02-28T11:39:17;11.30;;;7.70;;
12088;SDS011;6107;49.078;8.578;2023-02-28T11:44:47;11.23;;;7.40;;
12088;SDS011;6107;49.078;8.578;2023-02-28T11:47:29;11.70;;;7.27;;
12088;SDS011;6107;49.078;8.578;2023-02-28T11:52:57;11.07;;;7.63;;
12088;SDS011;6107;49.078;8.578;2023-02-28T11:55:42;12.83;;;8.07;;
12088;SDS011;6107;49.078;8.578;2023-02-28T11:58:14;11.10;;;7.47;;
12088;SDS011;6107;49.078;8.578;2023-02-28T12:03:58;12.07;;;7.37;;
12088;SDS011;6107;49.078;8.578;2023-02-28T12:07:08;11.07;;;7.27;;
12088;SDS011;6107;49.078;8.578;2023-02-28T12:15:42;11.63;;;7.97;;
12088;SDS011;6107;49.078;8.578;2023-02-28T12:18:42;12.50;;;7.73;;
12088;SDS011;6107;49.078;8.578;2023-02-28T12:26:53;11.27;;;7.53;;
12088;SDS011;6107;49.078;8.578;2023-02-28T12:31:51;12.43;;;7.60;;
12088;SDS011;6107;49.078;8.578;2023-02-28T12:34:28;10.83;;;7.53;;
12088;SDS011;6107;49.078;8.578;2023-02-28T12:37:01;11.83;;;7.27;;
12088;SDS011;6107;49.078;8.578;2023-02-28T12:39:34;13.47;;;7.87;;
12088;SDS011;6107;49.078;8.578;2023-02-28T12:42:07;11.43;;;7.30;;
12088;SDS011;6107;49.078;8.578;2023-02-28T12:44:40;11.53;;;8.17;;
12088;SDS011;6107;49.078;8.578;2023-02-28T12:47:15;11.57;;;8.30;;
12088;SDS011;6107;49.078;8.578;2023-02-28T12:49:56;13.37;;;7.97;;
12088;SDS011;6107;49.078;8.578;2023-02-28T12:55:08;12.50;;;7.70;;
12088;SDS011;6107;49.078;8.578;2023-02-28T13:03:47;12.77;;;8.57;;
12088;SDS011;6107;49.078;8.578;2023-02-28T13:09:01;13.53;;;7.60;;
12088;SDS011;6107;49.078;8.578;2023-02-28T13:14:24;11.20;;;8.07;;
12088;SDS011;6107;49.078;8.578;2023-02-28T13:19:36;13.53;;;9.40;;
12088;SDS011;6107;49.078;8.578;2023-02-28T13:24:59;11.50;;;8.10;;
12088;SDS011;6107;49.078;8.578;2023-02-28T13:27:35;13.17;;;8.33;;
12088;SDS011;6107;49.078;8.578;2023-02-28T13:33:01;13.93;;;8.43;;
12088;SDS011;6107;49.078;8.578;2023-02-28T13:36:06;13.57;;;8.87;;
12088;SDS011;6107;49.078;8.578;2023-02-28T13:38:39;11.63;;;8.00;;
12088;SDS011;6107;49.078;8.578;2023-02-28T13:59:36;13.47;;;8.97;;
12088;SDS011;6107;49.078;8.578;2023-02-28T14:02:26;22.83;;;12.50;;
12088;SDS011;6107;49.078;8.578;2023-02-28T14:05:06;11.73;;;8.60;;
12088;SDS011;6107;49.078;8.578;2023-02-28T14:07:48;13.37;;;9.43;;
12088;SDS011;6107;49.078;8.578;2023-02-28T14:10:23;15.20;;;9.20;;
12088;SDS011;6107;49.078;8.578;2023-02-28T14:15:27;17.23;;;9.50;;
12088;SDS011;6107;49.078;8.578;2023-02-28T14:18:14;12.00;;;8.50;;
12088;SDS011;6107;49.078;8.578;2023-02-28T14:20:52;15.40;;;10.67;;
12088;SDS011;6107;49.078;8.578;2023-02-28T14:23:36;13.10;;;8.17;;
12088;SDS011;6107;49.078;8.578;2023-02-28T14:26:31;14.07;;;9.63;;
12088;SDS011;6107;49.078;8.578;2023-02-28T14:34:48;13.33;;;9.40;;
12088;SDS011;6107;49.078;8.578;2023-02-28T14:37:28;16.17;;;9.70;;
12088;SDS011;6107;49.078;8.578;2023-02-28T14:39:58;14.87;;;9.77;;
12088;SDS011;6107;49.078;8.578;2023-02-28T14:42:35;15.57;;;9.20;;
12088;SDS011;6107;49.078;8.578;2023-02-28T14:45:03;14.03;;;9.57;;
12088;SDS011;6107;49.078;8.578;2023-02-28T14:47:33;12.73;;;8.50;;
12088;SDS011;6107;49.078;8.578;2023-02-28T14:50:00;14.93;;;9.80;;
12088;SDS011;6107;49.078;8.578;2023-02-28T14:52:30;14.10;;;9.03;;
12088;SDS011;6107;49.078;8.578;2023-02-28T14:54:58;13.83;;;8.90;;
12088;SDS011;6107;49.078;8.578;2023-02-28T14:57:29;14.00;;;8.87;;
12088;SDS011;6107;49.078;8.578;2023-02-28T15:00:20;14.13;;;9.80;;
12088;SDS011;6107;49.078;8.578;2023-02-28T15:02:46;14.03;;;9.60;;
12088;SDS011;6107;49.078;8.578;2023-02-28T15:07:37;19.87;;;11.47;;
12088;SDS011;6107;49.078;8.578;2023-02-28T15:15:18;12.53;;;8.67;;
12088;SDS011;6107;49.078;8.578;2023-02-28T15:17:47;12.63;;;9.20;;
12088;SDS011;6107;49.078;8.578;2023-02-28T15:20:18;12.03;;;8.67;;
12088;SDS011;6107;49.078;8.578;2023-02-28T15:22:44;12.67;;;8.93;;
12088;SDS011;6107;49.078;8.578;2023-02-28T15:25:13;12.87;;;8.67;;
12088;SDS011;6107;49.078;8.578;2023-02-28T15:27:50;12.50;;;10.07;;
12088;SDS011;6107;49.078;8.578;2023-02-28T15:30:21;16.43;;;9.47;;
12088;SDS011;6107;49.078;8.578;2023-02-28T15:35:29;12.67;;;8.50;;
12088;SDS011;6107;49.078;8.578;2023-02-28T15:37:58;13.90;;;8.90;;
12088;SDS011;6107;49.078;8.578;2023-02-28T15:40:31;12.87;;;8.43;;
12088;SDS011;6107;49.078;8.578;2023-02-28T15:43:04;14.73;;;9.00;;
12088;SDS011;6107;49.078;8.578;2023-02-28T15:45:39;14.53;;;9.00;;
12088;SDS011;6107;49.078;8.578;2023-02-28T15:48:20;11.73;;;8.77;;
12088;SDS011;6107;49.078;8.578;2023-02-28T15:50:51;12.93;;;9.17;;
12088;SDS011;6107;49.078;8.578;2023-02-28T15:53:23;15.30;;;10.03;;
12088;SDS011;6107;49.078;8.578;2023-02-28T15:56:02;14.43;;;9.23;;
12088;SDS011;6107;49.078;8.578;2023-02-28T15:58:46;15.40;;;9.67;;
12088;SDS011;6107;49.078;8.578;2023-02-28T16:01:17;19.83;;;10.43;;
12088;SDS011;6107;49.078;8.578;2023-02-28T16:03:50;21.10;;;13.90;;
12088;SDS011;6107;49.078;8.578;2023-02-28T16:08:50;20.60;;;12.83;;
12088;SDS011;6107;49.078;8.578;2023-02-28T16:11:18;14.40;;;9.73;;
12088;SDS011;6107;49.078;8.578;2023-02-28T16:13:45;18.60;;;12.13;;
12088;SDS011;6107;49.078;8.578;2023-02-28T16:16:14;24.93;;;20.10;;
12088;SDS011;6107;49.078;8.578;2023-02-28T16:18:44;19.07;;;14.40;;
12088;SDS011;6107;49.078;8.578;2023-02-28T16:21:10;18.20;;;14.20;;
12088;SDS011;6107;49.078;8.578;2023-02-28T16:23:35;19.27;;;12.30;;
12088;SDS011;6107;49.078;8.578;2023-02-28T16:26:02;13.47;;;9.33;;
12088;SDS011;6107;49.078;8.578;2023-02-28T16:28:33;15.50;;;9.57;;
12088;SDS011;6107;49.078;8.578;2023-02-28T16:31:02;14.03;;;9.20;;
12088;SDS011;6107;49.078;8.578;2023-02-28T16:33:32;15.63;;;9.27;;
12088;SDS011;6107;49.078;8.578;2023-02-28T16:35:58;16.20;;;10.83;;
12088;SDS011;6107;49.078;8.578;2023-02-28T16:38:25;14.60;;;9.70;;
12088;SDS011;6107;49.078;8.578;2023-02-28T16:40:51;14.57;;;8.87;;
12088;SDS011;6107;49.078;8.578;2023-02-28T16:43:18;17.13;;;9.60;;
12088;SDS011;6107;49.078;8.578;2023-02-28T16:45:52;13.03;;;9.30;;
12088;SDS011;6107;49.078;8.578;2023-02-28T16:48:21;13.40;;;9.37;;
12088;SDS011;6107;49.078;8.578;2023-02-28T16:50:46;17.93;;;10.53;;
12088;SDS011;6107;49.078;8.578;2023-02-28T16:53:12;17.83;;;10.60;;
12088;SDS011;6107;49.078;8.578;2023-02-28T16:55:38;14.10;;;8.73;;
12088;SDS011;6107;49.078;8.578;2023-02-28T16:58:04;12.87;;;9.50;;
12088;SDS011;6107;49.078;8.578;2023-02-28T17:00:30;13.77;;;9.23;;
12088;SDS011;6107;49.078;8.578;2023-02-28T17:02:57;15.10;;;8.70;;
12088;SDS011;6107;49.078;8.578;2023-02-28T17:05:24;13.33;;;8.83;;
12088;SDS011;6107;49.078;8.578;2023-02-28T17:07:50;14.47;;;9.33;;
12088;SDS011;6107;49.078;8.578;2023-02-28T17:12:43;15.80;;;9.27;;
12088;SDS011;6107;49.078;8.578;2023-02-28T17:15:09;13.97;;;9.43;;
12088;SDS011;6107;49.078;8.578;2023-02-28T17:17:36;15.97;;;10.10;;
12088;SDS011;6107;49.078;8.578;2023-02-28T17:20:02;14.60;;;9.67;;
12088;SDS011;6107;49.078;8.578;2023-02-28T17:22:28;16.23;;;10.57;;
12088;SDS011;6107;49.078;8.578;2023-02-28T17:24:54;17.23;;;10.83;;